createdAt,value
2023-09-22T00:00:20.109Z,19.70
2023-09-22T00:02:48.275Z,19.60
2023-09-22T00:05:13.548Z,19.60
2023-09-22T00:07:37.862Z,19.50
2023-09-22T00:10:01.944Z,19.50
2023-09-22T00:12:25.833Z,19.50
2023-09-22T00:14:51.129Z,19.50
2023-09-22T00:17:14.932Z,19.40
2023-09-22T00:19:38.860Z,19.50
2023-09-22T00:22:03.421Z,19.50
2023-09-22T00:24:27.312Z,19.60
2023-09-22T00:26:51.222Z,19.60
2023-09-22T00:29:15.245Z,19.70
2023-09-22T00:31:40.572Z,19.70
2023-09-22T00:34:04.683Z,19.80
2023-09-22T00:36:28.533Z,19.70
2023-09-22T00:38:52.406Z,19.80
2023-09-22T00:41:16.502Z,19.70
2023-09-22T00:43:40.663Z,19.80
2023-09-22T00:46:05.481Z,19.70
2023-09-22T00:48:41.684Z,19.80
2023-09-22T00:51:08.092Z,19.80
2023-09-22T00:53:35.770Z,19.80
2023-09-22T00:55:59.929Z,19.80
2023-09-22T00:58:24.930Z,19.70
2023-09-22T01:00:50.108Z,19.80
2023-09-22T01:03:14.691Z,19.90
2023-09-22T01:05:40.174Z,19.80
2023-09-22T01:08:04.012Z,19.60
2023-09-22T01:10:38.559Z,19.70
2023-09-22T01:13:02.482Z,19.30
2023-09-22T01:15:26.405Z,19.00
2023-09-22T01:17:50.468Z,18.90
2023-09-22T01:20:14.460Z,18.60
2023-09-22T01:22:39.576Z,18.50
2023-09-22T01:25:04.108Z,18.50
2023-09-22T01:27:28.040Z,18.60
2023-09-22T01:29:51.913Z,18.60
2023-09-22T01:32:16.686Z,18.70
2023-09-22T01:34:40.562Z,18.80
2023-09-22T01:37:08.966Z,18.80
2023-09-22T01:39:34.314Z,18.70
2023-09-22T01:41:58.149Z,18.70
2023-09-22T01:44:22.270Z,18.70
2023-09-22T01:46:46.293Z,18.80
2023-09-22T01:49:17.660Z,18.80
2023-09-22T01:51:41.662Z,18.80
2023-09-22T01:54:06.103Z,18.80
2023-09-22T01:56:31.724Z,18.70
2023-09-22T01:58:55.593Z,18.80
2023-09-22T02:01:20.298Z,18.60
2023-09-22T02:03:44.441Z,18.50
2023-09-22T02:06:08.418Z,18.50
2023-09-22T02:08:32.244Z,18.40
2023-09-22T02:11:01.762Z,18.40
2023-09-22T02:13:27.092Z,18.40
2023-09-22T02:15:53.299Z,18.30
2023-09-22T02:18:19.287Z,18.40
2023-09-22T02:20:45.299Z,18.20
2023-09-22T02:23:09.334Z,18.20
2023-09-22T02:25:33.186Z,18.20
2023-09-22T02:28:00.191Z,18.20
2023-09-22T02:30:26.001Z,18.10
2023-09-22T02:32:51.845Z,18.10
2023-09-22T02:35:16.025Z,18.00
2023-09-22T02:37:41.838Z,17.90
2023-09-22T02:40:06.412Z,17.90
2023-09-22T02:42:30.277Z,17.90
2023-09-22T02:44:54.492Z,18.00
2023-09-22T02:47:20.000Z,18.00
2023-09-22T02:49:44.310Z,17.90
2023-09-22T02:52:12.110Z,17.90
2023-09-22T02:54:36.242Z,17.90
2023-09-22T02:57:00.145Z,17.80
2023-09-22T02:59:24.023Z,17.70
2023-09-22T03:01:48.027Z,17.70
2023-09-22T03:04:12.353Z,17.80
2023-09-22T03:06:36.250Z,17.70
2023-09-22T03:09:00.185Z,17.80
2023-09-22T03:11:24.109Z,17.80
2023-09-22T03:13:49.180Z,17.90
2023-09-22T03:16:13.203Z,17.90
2023-09-22T03:18:37.171Z,17.90
2023-09-22T03:21:03.483Z,17.90
2023-09-22T03:23:27.343Z,18.00
2023-09-22T03:25:51.507Z,18.00
2023-09-22T03:28:17.107Z,18.00
2023-09-22T03:30:41.077Z,17.90
2023-09-22T03:33:05.697Z,18.00
2023-09-22T03:35:30.725Z,18.00
2023-09-22T03:37:56.990Z,17.90
2023-09-22T03:40:32.134Z,17.80
2023-09-22T03:42:56.005Z,17.70
2023-09-22T03:45:20.419Z,17.60
2023-09-22T03:47:45.113Z,17.70
2023-09-22T03:50:10.056Z,17.70
2023-09-22T03:52:35.231Z,17.60
2023-09-22T03:55:00.420Z,17.70
2023-09-22T03:57:25.066Z,17.70
2023-09-22T03:59:49.075Z,17.70
2023-09-22T04:02:12.876Z,17.60
2023-09-22T04:04:36.854Z,17.60
2023-09-22T04:07:00.949Z,17.60
2023-09-22T04:09:25.132Z,17.60
2023-09-22T04:11:50.680Z,17.50
2023-09-22T04:14:14.577Z,17.60
2023-09-22T04:16:38.563Z,17.70
2023-09-22T04:19:02.448Z,17.70
2023-09-22T04:21:26.554Z,17.80
2023-09-22T04:23:52.554Z,17.90
2023-09-22T04:26:17.950Z,17.80
2023-09-22T04:28:43.437Z,17.90
2023-09-22T04:31:07.572Z,18.10
2023-09-22T04:33:31.579Z,18.30
2023-09-22T04:35:55.582Z,18.50
2023-09-22T04:38:20.188Z,18.60
2023-09-22T04:40:44.241Z,18.90
2023-09-22T04:43:08.901Z,19.20
2023-09-22T04:45:34.498Z,19.60
2023-09-22T04:47:59.215Z,19.90
2023-09-22T04:50:24.238Z,20.10
2023-09-22T04:52:48.968Z,20.40
2023-09-22T04:55:17.952Z,20.70
2023-09-22T04:57:42.179Z,20.90
2023-09-22T05:00:16.977Z,21.30
2023-09-22T05:02:42.873Z,21.70
2023-09-22T05:05:07.718Z,21.90
2023-09-22T05:07:32.188Z,22.00
2023-09-22T05:09:56.356Z,22.20
2023-09-22T05:12:20.616Z,22.20
2023-09-22T05:14:44.421Z,22.60
2023-09-22T05:17:08.902Z,23.20
2023-09-22T05:19:34.188Z,23.80
2023-09-22T05:21:58.260Z,24.20
2023-09-22T05:24:22.146Z,24.00
2023-09-22T05:26:46.070Z,24.60
2023-09-22T05:29:09.894Z,25.10
2023-09-22T05:31:35.570Z,25.30
2023-09-22T05:33:59.432Z,25.50
2023-09-22T05:36:24.723Z,25.90
2023-09-22T05:38:48.742Z,26.20
2023-09-22T05:41:12.635Z,26.30
2023-09-22T05:43:36.494Z,26.80
2023-09-22T05:46:00.816Z,26.80
2023-09-22T05:48:25.446Z,27.00
2023-09-22T05:50:58.062Z,27.30
2023-09-22T05:53:26.097Z,27.60
2023-09-22T05:55:49.854Z,27.80
2023-09-22T05:58:14.345Z,27.60
2023-09-22T06:00:39.806Z,27.40
2023-09-22T06:03:06.220Z,27.40
2023-09-22T06:05:30.665Z,27.90
2023-09-22T06:07:55.808Z,27.80
2023-09-22T06:10:24.021Z,27.50
2023-09-22T06:12:48.046Z,27.40
2023-09-22T06:15:13.986Z,27.10
2023-09-22T06:17:39.181Z,27.20
2023-09-22T06:20:09.841Z,27.50
2023-09-22T06:22:33.942Z,27.20
2023-09-22T06:24:58.083Z,27.50
2023-09-22T06:27:23.754Z,28.20
2023-09-22T06:29:47.809Z,28.90
2023-09-22T06:32:11.734Z,29.80
2023-09-22T06:34:35.826Z,30.70
2023-09-22T06:36:59.910Z,31.00
2023-09-22T06:39:23.871Z,31.60
2023-09-22T06:41:48.017Z,30.70
2023-09-22T06:44:17.363Z,30.70
2023-09-22T06:46:41.560Z,31.20
2023-09-22T06:49:09.275Z,31.20
2023-09-22T06:51:34.769Z,32.20
2023-09-22T06:53:59.191Z,33.20
2023-09-22T06:56:27.217Z,33.00
2023-09-22T06:58:56.535Z,33.10
2023-09-22T07:01:22.159Z,33.60
2023-09-22T07:03:47.534Z,33.60
2023-09-22T07:06:16.242Z,34.00
2023-09-22T07:08:40.472Z,34.30
2023-09-22T07:11:05.334Z,34.00
2023-09-22T07:13:30.872Z,34.50
2023-09-22T07:15:55.710Z,35.20
2023-09-22T07:18:21.073Z,35.10
2023-09-22T07:20:48.146Z,33.80
2023-09-22T07:23:14.061Z,33.30
2023-09-22T07:25:37.860Z,33.50
2023-09-22T07:28:01.787Z,33.80
2023-09-22T07:30:25.653Z,34.80
2023-09-22T07:32:49.708Z,34.80
2023-09-22T07:35:15.801Z,35.20
2023-09-22T07:37:39.905Z,36.40
2023-09-22T07:40:10.597Z,36.50
2023-09-22T07:42:34.833Z,36.30
2023-09-22T07:44:58.707Z,37.40
2023-09-22T07:47:22.545Z,37.40
2023-09-22T07:49:46.614Z,37.90
2023-09-22T07:52:12.123Z,38.40
2023-09-22T07:54:36.233Z,37.20
2023-09-22T07:57:00.792Z,37.30
2023-09-22T07:59:24.959Z,37.90
2023-09-22T08:01:48.895Z,38.10
2023-09-22T08:04:13.375Z,38.10
2023-09-22T08:06:37.573Z,37.20
2023-09-22T08:09:04.979Z,37.50
2023-09-22T08:11:29.149Z,37.50
2023-09-22T08:13:53.027Z,38.00
2023-09-22T08:16:18.995Z,38.70
2023-09-22T08:18:43.055Z,38.80
2023-09-22T08:21:07.372Z,39.30
2023-09-22T08:23:45.627Z,38.40
2023-09-22T08:26:18.822Z,38.20
2023-09-22T08:28:43.096Z,38.30
2023-09-22T08:31:08.622Z,37.70
2023-09-22T08:33:33.288Z,37.40
2023-09-22T08:36:03.692Z,36.60
2023-09-22T08:38:28.132Z,36.20
2023-09-22T08:40:52.259Z,35.60
2023-09-22T08:43:18.016Z,35.00
2023-09-22T08:45:42.921Z,35.10
2023-09-22T08:48:07.680Z,34.70
2023-09-22T08:50:31.603Z,34.60
2023-09-22T08:52:55.785Z,34.10
2023-09-22T08:55:21.121Z,33.30
2023-09-22T08:57:47.092Z,32.90
2023-09-22T09:00:20.676Z,32.90
2023-09-22T09:02:44.987Z,32.80
2023-09-22T09:05:21.917Z,32.70
2023-09-22T09:07:46.064Z,32.70
2023-09-22T09:10:11.685Z,32.60
2023-09-22T09:12:47.222Z,32.50
2023-09-22T09:15:13.110Z,32.40
2023-09-22T09:17:37.080Z,32.20
2023-09-22T09:20:07.059Z,32.20
2023-09-22T09:22:36.893Z,32.10
2023-09-22T09:25:01.582Z,31.70
2023-09-22T09:27:26.345Z,31.50
2023-09-22T09:29:51.944Z,31.50
2023-09-22T09:32:26.800Z,31.60
2023-09-22T09:34:50.809Z,31.40
2023-09-22T09:37:16.094Z,31.50
2023-09-22T09:39:46.842Z,31.60
2023-09-22T09:42:13.622Z,31.80
2023-09-22T09:44:38.773Z,32.00
2023-09-22T09:47:04.860Z,32.00
2023-09-22T09:49:31.553Z,31.90
2023-09-22T09:51:55.592Z,31.80
2023-09-22T09:54:22.721Z,31.60
2023-09-22T09:56:46.755Z,31.80
2023-09-22T09:59:11.738Z,31.80
2023-09-22T10:01:36.842Z,31.90
2023-09-22T10:04:01.404Z,31.80
2023-09-22T10:06:34.673Z,31.60
2023-09-22T10:09:02.455Z,31.50
2023-09-22T10:11:26.748Z,31.60
2023-09-22T10:13:51.048Z,31.70
2023-09-22T10:16:30.088Z,31.80
2023-09-22T10:18:57.113Z,31.90
2023-09-22T10:21:44.863Z,31.80
2023-09-22T10:24:26.704Z,31.70
2023-09-22T10:27:18.206Z,31.60
2023-09-22T10:29:47.032Z,31.50
2023-09-22T10:32:27.376Z,31.60
2023-09-22T10:34:53.223Z,31.30
2023-09-22T10:37:19.088Z,30.90
2023-09-22T10:39:57.537Z,30.80
2023-09-22T10:42:22.959Z,30.50
2023-09-22T10:45:01.016Z,30.30
2023-09-22T10:47:25.067Z,30.50
2023-09-22T10:49:49.088Z,30.60
2023-09-22T10:52:15.764Z,30.80
2023-09-22T10:54:48.304Z,30.90
2023-09-22T10:57:25.258Z,31.00
2023-09-22T10:59:49.448Z,31.00
2023-09-22T11:02:22.794Z,30.80
2023-09-22T11:04:48.449Z,30.80
2023-09-22T11:07:13.685Z,30.60
2023-09-22T11:09:37.628Z,30.40
2023-09-22T11:12:03.636Z,30.50
2023-09-22T11:14:27.608Z,30.60
2023-09-22T11:16:51.669Z,30.80
2023-09-22T11:19:15.706Z,30.90
2023-09-22T11:21:44.340Z,31.00
2023-09-22T11:24:08.625Z,31.10
2023-09-22T11:26:42.380Z,31.20
2023-09-22T11:29:07.847Z,31.00
2023-09-22T11:31:33.873Z,31.10
2023-09-22T11:34:05.301Z,31.10
2023-09-22T11:36:29.291Z,31.00
2023-09-22T11:38:56.563Z,30.90
2023-09-22T11:41:24.583Z,30.80
2023-09-22T11:43:49.912Z,30.70
2023-09-22T11:46:16.846Z,30.70
2023-09-22T11:49:00.809Z,30.70
2023-09-22T11:51:40.042Z,30.80
2023-09-22T11:54:04.692Z,30.70
2023-09-22T11:56:28.552Z,30.70
2023-09-22T11:58:52.577Z,30.70
2023-09-22T12:01:18.696Z,30.50
2023-09-22T12:03:42.736Z,30.50
2023-09-22T12:06:06.673Z,30.20
2023-09-22T12:08:32.926Z,30.00
2023-09-22T12:10:56.839Z,30.00
2023-09-22T12:13:20.786Z,29.90
2023-09-22T12:15:44.693Z,29.90
2023-09-22T12:18:11.888Z,29.90
2023-09-22T12:20:37.104Z,29.80
2023-09-22T12:23:01.249Z,29.80
2023-09-22T12:25:26.219Z,29.80
2023-09-22T12:27:50.164Z,29.80
2023-09-22T12:30:15.753Z,29.80
2023-09-22T12:32:39.973Z,29.80
2023-09-22T12:35:06.432Z,29.80
2023-09-22T12:37:32.309Z,29.80
2023-09-22T12:39:56.318Z,29.80
2023-09-22T12:42:20.603Z,29.90
2023-09-22T12:44:44.456Z,29.90
2023-09-22T12:47:09.949Z,29.80
2023-09-22T12:49:34.567Z,29.90
2023-09-22T12:52:00.004Z,29.80
2023-09-22T12:54:23.769Z,29.70
2023-09-22T12:56:47.629Z,29.70
2023-09-22T12:59:11.408Z,29.60
2023-09-22T13:01:35.364Z,29.80
2023-09-22T13:04:00.038Z,29.80
2023-09-22T13:06:24.635Z,29.80
2023-09-22T13:08:49.892Z,29.80
2023-09-22T13:11:17.804Z,29.80
2023-09-22T13:13:41.557Z,29.90
2023-09-22T13:16:06.035Z,29.90
2023-09-22T13:18:29.945Z,29.90
2023-09-22T13:20:53.862Z,30.00
2023-09-22T13:23:17.778Z,30.00
2023-09-22T13:25:46.505Z,29.90
2023-09-22T13:28:11.762Z,29.80
2023-09-22T13:30:37.376Z,29.90
2023-09-22T13:33:01.279Z,29.80
2023-09-22T13:35:25.223Z,29.80
2023-09-22T13:37:49.007Z,29.90
2023-09-22T13:40:13.601Z,29.90
2023-09-22T13:42:38.785Z,29.80
2023-09-22T13:45:02.862Z,29.80
2023-09-22T13:47:26.766Z,29.70
2023-09-22T13:49:53.230Z,29.70
2023-09-22T13:52:18.125Z,29.60
2023-09-22T13:54:42.937Z,29.50
2023-09-22T13:57:07.141Z,29.50
2023-09-22T13:59:32.597Z,29.40
2023-09-22T14:01:57.288Z,29.30
2023-09-22T14:04:21.369Z,29.30
2023-09-22T14:06:45.177Z,29.20
2023-09-22T14:09:10.094Z,29.20
2023-09-22T14:11:33.988Z,29.20
2023-09-22T14:13:57.999Z,29.20
2023-09-22T14:16:23.535Z,29.20
2023-09-22T14:18:47.636Z,29.20
2023-09-22T14:21:13.475Z,29.10
2023-09-22T14:23:37.741Z,29.20
2023-09-22T14:26:04.279Z,29.30
2023-09-22T14:28:29.637Z,29.30
2023-09-22T14:30:54.042Z,29.20
2023-09-22T14:33:19.720Z,29.10
2023-09-22T14:35:43.754Z,29.00
2023-09-22T14:38:08.080Z,29.00
2023-09-22T14:40:32.298Z,28.90
2023-09-22T14:42:57.589Z,28.90
2023-09-22T14:45:21.387Z,28.80
2023-09-22T14:47:46.972Z,28.80
2023-09-22T14:50:12.218Z,28.70
2023-09-22T14:52:36.088Z,28.80
2023-09-22T14:55:00.778Z,28.90
2023-09-22T14:57:24.597Z,28.80
2023-09-22T14:59:48.837Z,28.80
2023-09-22T15:02:13.826Z,28.80
2023-09-22T15:04:38.339Z,28.80
2023-09-22T15:07:04.174Z,28.70
2023-09-22T15:09:28.970Z,28.60
2023-09-22T15:11:52.924Z,28.60
2023-09-22T15:14:18.249Z,28.50
2023-09-22T15:16:42.157Z,28.50
2023-09-22T15:19:06.179Z,28.50
2023-09-22T15:21:30.388Z,28.50
2023-09-22T15:23:55.644Z,28.40
2023-09-22T15:26:22.572Z,28.40
2023-09-22T15:28:46.528Z,28.30
2023-09-22T15:31:11.775Z,28.30
2023-09-22T15:33:35.889Z,28.30
2023-09-22T15:36:00.391Z,28.20
2023-09-22T15:38:24.303Z,28.20
2023-09-22T15:41:01.289Z,28.10
2023-09-22T15:43:25.673Z,28.10
2023-09-22T15:45:49.690Z,28.00
2023-09-22T15:48:13.589Z,28.00
2023-09-22T15:50:37.793Z,27.90
2023-09-22T15:53:02.036Z,27.80
2023-09-22T15:55:25.956Z,27.80
2023-09-22T15:57:51.277Z,27.80
2023-09-22T16:00:15.554Z,27.70
2023-09-22T16:02:43.378Z,27.60
2023-09-22T16:05:08.077Z,27.50
2023-09-22T16:07:33.696Z,27.50
2023-09-22T16:09:57.586Z,27.40
2023-09-22T16:12:21.544Z,27.20
2023-09-22T16:14:46.772Z,27.20
2023-09-22T16:17:10.827Z,27.00
2023-09-22T16:19:34.824Z,27.00
2023-09-22T16:21:59.634Z,26.80
2023-09-22T16:24:23.522Z,26.80
2023-09-22T16:26:48.017Z,26.60
2023-09-22T16:29:11.958Z,26.50
2023-09-22T16:31:37.298Z,26.40
2023-09-22T16:34:01.200Z,26.30
2023-09-22T16:36:25.097Z,26.20
2023-09-22T16:38:50.189Z,26.10
2023-09-22T16:41:14.011Z,26.00
2023-09-22T16:43:41.740Z,25.90
2023-09-22T16:46:05.833Z,25.80
2023-09-22T16:48:31.123Z,25.70
2023-09-22T16:50:55.627Z,25.60
2023-09-22T16:53:19.536Z,25.50
2023-09-22T16:55:43.477Z,25.40
2023-09-22T16:58:07.418Z,25.30
2023-09-22T17:00:32.367Z,25.20
2023-09-22T17:02:57.022Z,25.20
2023-09-22T17:05:23.378Z,25.20
2023-09-22T17:07:47.502Z,25.00
2023-09-22T17:10:12.454Z,24.90
2023-09-22T17:12:36.634Z,24.80
2023-09-22T17:15:00.697Z,24.80
2023-09-22T17:17:25.611Z,24.70
2023-09-22T17:19:50.681Z,24.60
2023-09-22T17:22:16.046Z,24.50
2023-09-22T17:24:40.133Z,24.50
2023-09-22T17:27:04.444Z,24.40
2023-09-22T17:29:28.484Z,24.30
2023-09-22T17:31:53.942Z,24.30
2023-09-22T17:34:17.778Z,24.20
2023-09-22T17:36:41.608Z,24.20
2023-09-22T17:39:09.959Z,24.10
2023-09-22T17:41:34.715Z,24.10
2023-09-22T17:43:59.080Z,24.10
2023-09-22T17:46:26.378Z,24.10
2023-09-22T17:48:50.483Z,24.00
2023-09-22T17:51:15.317Z,23.90
2023-09-22T17:53:39.396Z,23.90
2023-09-22T17:56:05.470Z,23.80
2023-09-22T17:58:29.477Z,23.80
2023-09-22T18:00:53.376Z,23.80
2023-09-22T18:03:17.370Z,23.70
2023-09-22T18:05:41.197Z,23.70
2023-09-22T18:08:05.340Z,23.70
2023-09-22T18:10:29.382Z,23.60
2023-09-22T18:12:54.850Z,23.60
2023-09-22T18:15:18.873Z,23.60
2023-09-22T18:17:46.560Z,23.60
2023-09-22T18:20:15.812Z,23.50
2023-09-22T18:22:39.872Z,23.40
2023-09-22T18:25:03.898Z,23.30
2023-09-22T18:27:28.356Z,23.30
2023-09-22T18:29:53.648Z,23.10
2023-09-22T18:32:18.068Z,23.20
2023-09-22T18:34:43.768Z,23.20
2023-09-22T18:37:07.731Z,23.20
2023-09-22T18:39:31.519Z,23.10
2023-09-22T18:41:55.821Z,23.10
2023-09-22T18:44:19.660Z,23.00
2023-09-22T18:46:44.961Z,23.10
2023-09-22T18:49:10.246Z,23.00
2023-09-22T18:51:34.786Z,22.90
2023-09-22T18:53:58.766Z,22.90
2023-09-22T18:56:22.738Z,22.90
2023-09-22T18:58:47.556Z,22.80
2023-09-22T19:01:11.756Z,22.80
2023-09-22T19:03:37.191Z,22.70
2023-09-22T19:06:04.375Z,22.70
2023-09-22T19:08:28.264Z,22.60
2023-09-22T19:10:52.822Z,22.60
2023-09-22T19:13:16.861Z,22.60
2023-09-22T19:15:45.299Z,22.60
2023-09-22T19:18:09.357Z,22.40
2023-09-22T19:20:37.785Z,22.30
2023-09-22T19:23:02.078Z,22.20
2023-09-22T19:25:31.507Z,22.10
2023-09-22T19:27:55.729Z,22.00
2023-09-22T19:30:19.711Z,21.90
2023-09-22T19:32:43.813Z,21.90
2023-09-22T19:35:10.789Z,21.90
2023-09-22T19:37:36.665Z,21.90
2023-09-22T19:40:00.584Z,22.00
2023-09-22T19:42:24.359Z,22.10
2023-09-22T19:44:49.281Z,22.10
2023-09-22T19:47:13.298Z,22.20
2023-09-22T19:49:37.638Z,22.20
2023-09-22T19:52:02.025Z,22.20
2023-09-22T19:54:27.381Z,22.30
2023-09-22T19:56:51.391Z,22.10
2023-09-22T19:59:15.410Z,22.00
2023-09-22T20:01:39.729Z,22.00
2023-09-22T20:04:04.356Z,22.00
2023-09-22T20:06:28.317Z,21.90
2023-09-22T20:08:53.627Z,21.80
2023-09-22T20:11:18.943Z,21.80
2023-09-22T20:13:45.249Z,21.70
2023-09-22T20:16:11.764Z,21.70
2023-09-22T20:18:35.931Z,21.60
2023-09-22T20:21:00.712Z,21.50
2023-09-22T20:23:24.582Z,21.50
2023-09-22T20:25:48.634Z,21.40
2023-09-22T20:28:14.491Z,21.50
2023-09-22T20:30:40.286Z,21.40
2023-09-22T20:33:04.276Z,21.20
2023-09-22T20:35:31.094Z,21.20
2023-09-22T20:37:55.075Z,21.20
2023-09-22T20:40:18.942Z,21.10
2023-09-22T20:42:42.821Z,21.00
2023-09-22T20:45:12.698Z,21.00
2023-09-22T20:47:37.264Z,21.00
2023-09-22T20:50:01.170Z,21.00
2023-09-22T20:52:25.666Z,21.10
2023-09-22T20:54:50.757Z,21.10
2023-09-22T20:57:14.685Z,21.10
2023-09-22T20:59:38.465Z,21.10
2023-09-22T21:02:04.892Z,21.00
2023-09-22T21:04:31.263Z,21.00
2023-09-22T21:06:55.283Z,20.90
2023-09-22T21:09:20.676Z,20.90
2023-09-22T21:11:44.900Z,20.90
2023-09-22T21:14:08.687Z,20.90
2023-09-22T21:16:33.001Z,20.80
2023-09-22T21:18:59.323Z,20.80
2023-09-22T21:21:23.236Z,20.80
2023-09-22T21:23:48.075Z,20.70
2023-09-22T21:26:14.152Z,20.70
2023-09-22T21:28:39.044Z,20.80
2023-09-22T21:31:03.825Z,20.70
2023-09-22T21:33:28.614Z,20.50
2023-09-22T21:35:54.484Z,20.50
2023-09-22T21:38:18.357Z,20.40
2023-09-22T21:40:42.544Z,20.50
2023-09-22T21:43:06.948Z,20.40
2023-09-22T21:45:32.555Z,20.50
2023-09-22T21:47:58.802Z,20.40
2023-09-22T21:50:22.906Z,20.50
2023-09-22T21:52:48.253Z,20.40
2023-09-22T21:55:12.253Z,20.40
2023-09-22T21:57:36.249Z,20.50
2023-09-22T22:00:01.713Z,20.50
2023-09-22T22:02:35.720Z,20.50
2023-09-22T22:05:00.225Z,20.50
2023-09-22T22:07:25.034Z,20.50
2023-09-22T22:09:52.780Z,20.40
2023-09-22T22:12:16.904Z,20.40
2023-09-22T22:14:41.394Z,20.40
2023-09-22T22:17:05.981Z,20.40
2023-09-22T22:19:30.571Z,20.40
2023-09-22T22:21:56.402Z,20.40
2023-09-22T22:24:23.084Z,20.40
2023-09-22T22:26:53.125Z,20.40
2023-09-22T22:29:17.522Z,20.40
2023-09-22T22:31:41.912Z,20.40
2023-09-22T22:34:05.992Z,20.40
2023-09-22T22:36:29.863Z,20.40
2023-09-22T22:38:53.756Z,20.40
2023-09-22T22:41:17.879Z,20.40
2023-09-22T22:43:43.258Z,20.50
2023-09-22T22:46:07.041Z,20.50
2023-09-22T22:48:31.013Z,20.50
2023-09-22T22:50:55.696Z,20.40
2023-09-22T22:53:20.249Z,20.40
2023-09-22T22:55:44.169Z,20.40
2023-09-22T22:58:19.115Z,20.40
2023-09-22T23:00:49.274Z,20.40
2023-09-22T23:03:13.803Z,20.30
2023-09-22T23:05:38.372Z,20.40
2023-09-22T23:08:04.856Z,20.40
2023-09-22T23:10:29.109Z,20.30
2023-09-22T23:12:52.880Z,20.40
2023-09-22T23:15:17.706Z,20.30
2023-09-22T23:17:43.847Z,20.20
2023-09-22T23:20:10.449Z,20.30
2023-09-22T23:22:34.485Z,20.10
2023-09-22T23:24:58.623Z,20.10
2023-09-22T23:27:22.605Z,20.10
2023-09-22T23:29:46.741Z,20.10
2023-09-22T23:32:10.709Z,20.10
2023-09-22T23:34:37.415Z,20.00
2023-09-22T23:37:01.425Z,20.00
2023-09-22T23:39:26.423Z,20.00
2023-09-22T23:41:50.273Z,20.00
2023-09-22T23:44:14.603Z,19.90
2023-09-22T23:46:38.989Z,19.90
2023-09-22T23:49:07.015Z,20.00
2023-09-22T23:51:32.151Z,19.90
2023-09-22T23:53:56.214Z,19.90
2023-09-22T23:56:21.909Z,19.80
2023-09-22T23:58:47.219Z,19.80
